createdAt,value
2023-01-12T00:01:50.063Z,7.53
2023-01-12T00:04:17.504Z,9.82
2023-01-12T00:06:45.121Z,9.55
2023-01-12T00:09:12.704Z,8.73
2023-01-12T00:11:41.045Z,10.40
2023-01-12T00:14:09.235Z,10.07
2023-01-12T00:16:39.574Z,7.97
2023-01-12T00:19:09.255Z,8.85
2023-01-12T00:21:43.484Z,9.05
2023-01-12T00:24:11.035Z,10.75
2023-01-12T00:26:38.364Z,9.30
2023-01-12T00:29:05.760Z,9.55
2023-01-12T00:31:33.263Z,11.55
2023-01-12T00:34:00.849Z,11.90
2023-01-12T00:36:28.213Z,10.40
2023-01-12T00:38:55.662Z,7.70
2023-01-12T00:41:41.600Z,10.07
2023-01-12T00:44:27.655Z,10.13
2023-01-12T00:46:55.195Z,10.32
2023-01-12T00:49:22.531Z,11.93
2023-01-12T00:51:49.965Z,9.38
2023-01-12T00:54:17.339Z,10.82
2023-01-12T00:56:44.816Z,10.88
2023-01-12T00:59:12.178Z,9.93
2023-01-12T01:01:39.715Z,7.10
2023-01-12T01:04:07.139Z,9.43
2023-01-12T01:06:34.619Z,11.60
2023-01-12T01:09:01.951Z,11.05
2023-01-12T01:11:29.405Z,9.55
2023-01-12T01:13:56.773Z,10.50
2023-01-12T01:16:24.143Z,8.80
2023-01-12T01:18:51.630Z,11.40
2023-01-12T01:21:19.004Z,10.25
2023-01-12T01:23:46.472Z,10.93
2023-01-12T01:26:15.364Z,11.05
2023-01-12T01:28:43.280Z,8.65
2023-01-12T01:31:13.356Z,9.77
2023-01-12T01:33:41.173Z,8.82
2023-01-12T01:36:09.221Z,12.40
2023-01-12T01:38:37.263Z,9.48
2023-01-12T01:41:05.356Z,12.45
2023-01-12T01:43:53.088Z,10.82
2023-01-12T01:46:26.206Z,9.77
2023-01-12T01:48:54.348Z,10.95
2023-01-12T01:51:22.339Z,9.02
2023-01-12T01:53:50.174Z,10.43
2023-01-12T01:56:20.702Z,10.57
2023-01-12T01:58:53.399Z,9.63
2023-01-12T02:01:21.012Z,9.38
2023-01-12T02:03:48.800Z,11.95
2023-01-12T02:06:16.424Z,12.15
2023-01-12T02:08:43.890Z,13.23
2023-01-12T02:11:30.171Z,13.02
2023-01-12T02:14:16.136Z,12.90
2023-01-12T02:16:58.671Z,12.90
2023-01-12T02:19:34.756Z,13.63
2023-01-12T02:22:04.901Z,15.98
2023-01-12T02:24:38.448Z,13.77
2023-01-12T02:27:09.043Z,14.27
2023-01-12T02:29:39.498Z,14.75
2023-01-12T02:32:09.168Z,12.32
2023-01-12T02:34:58.978Z,15.55
2023-01-12T02:37:32.443Z,14.68
2023-01-12T02:40:08.401Z,13.00
2023-01-12T02:42:41.533Z,14.70
2023-01-12T02:45:21.101Z,14.77
2023-01-12T02:47:57.700Z,16.15
2023-01-12T02:50:32.085Z,14.73
2023-01-12T02:53:03.602Z,15.83
2023-01-12T02:55:31.497Z,15.45
2023-01-12T02:57:59.323Z,17.10
2023-01-12T03:00:27.276Z,14.18
2023-01-12T03:02:54.648Z,18.33
2023-01-12T03:05:26.979Z,13.73
2023-01-12T03:07:56.602Z,16.70
2023-01-12T03:10:30.167Z,13.38
2023-01-12T03:12:59.701Z,14.48
2023-01-12T03:15:28.952Z,17.88
2023-01-12T03:18:00.488Z,18.13
2023-01-12T03:20:31.564Z,15.43
2023-01-12T03:23:02.763Z,14.73
2023-01-12T03:25:32.311Z,15.70
2023-01-12T03:28:00.472Z,15.85
2023-01-12T03:30:31.197Z,15.35
2023-01-12T03:32:58.711Z,15.63
2023-01-12T03:35:27.903Z,14.02
2023-01-12T03:37:55.334Z,14.68
2023-01-12T03:40:24.393Z,13.38
2023-01-12T03:42:58.128Z,13.30
2023-01-12T03:45:28.600Z,12.07
2023-01-12T03:47:58.025Z,13.00
2023-01-12T03:50:27.780Z,12.32
2023-01-12T03:52:55.864Z,14.65
2023-01-12T03:55:24.262Z,15.75
2023-01-12T03:57:52.474Z,13.73
2023-01-12T04:00:21.283Z,15.48
2023-01-12T04:02:48.683Z,12.57
2023-01-12T04:05:16.307Z,13.68
2023-01-12T04:07:43.731Z,12.30
2023-01-12T04:10:11.327Z,13.27
2023-01-12T04:12:39.088Z,13.82
2023-01-12T04:15:06.584Z,15.68
2023-01-12T04:17:34.073Z,14.77
2023-01-12T04:20:01.522Z,14.65
2023-01-12T04:22:44.420Z,13.48
2023-01-12T04:25:16.328Z,13.60
2023-01-12T04:27:50.033Z,13.13
2023-01-12T04:30:18.910Z,16.05
2023-01-12T04:32:46.563Z,13.07
2023-01-12T04:35:14.278Z,15.30
2023-01-12T04:37:41.605Z,15.07
2023-01-12T04:40:09.916Z,13.05
2023-01-12T04:42:56.344Z,13.15
2023-01-12T04:45:24.214Z,14.65
2023-01-12T04:47:51.600Z,14.68
2023-01-12T04:50:19.073Z,15.00
2023-01-12T04:52:46.529Z,11.30
2023-01-12T04:55:14.026Z,11.85
2023-01-12T04:57:41.353Z,14.15
2023-01-12T05:00:09.394Z,10.93
2023-01-12T05:02:36.815Z,13.80
2023-01-12T05:05:05.411Z,12.88
2023-01-12T05:07:32.928Z,14.18
2023-01-12T05:10:19.083Z,11.43
2023-01-12T05:12:46.511Z,12.43
2023-01-12T05:15:14.563Z,12.80
2023-01-12T05:17:41.929Z,11.05
2023-01-12T05:20:09.772Z,15.73
2023-01-12T05:22:37.108Z,14.10
2023-01-12T05:25:04.690Z,14.68
2023-01-12T05:27:32.118Z,12.85
2023-01-12T05:29:59.759Z,14.40
2023-01-12T05:32:27.508Z,15.77
2023-01-12T05:34:54.920Z,14.25
2023-01-12T05:37:22.236Z,15.73
2023-01-12T05:39:49.715Z,19.52
2023-01-12T05:42:35.476Z,17.27
2023-01-12T05:45:03.102Z,15.90
2023-01-12T05:47:30.453Z,16.83
2023-01-12T05:49:57.976Z,13.65
2023-01-12T05:52:25.336Z,13.38
2023-01-12T05:54:52.822Z,17.48
2023-01-12T05:57:20.157Z,15.68
2023-01-12T05:59:47.608Z,15.23
2023-01-12T06:02:17.594Z,15.25
2023-01-12T06:04:45.440Z,19.25
2023-01-12T06:07:13.694Z,18.88
2023-01-12T06:09:41.578Z,23.45
2023-01-12T06:12:32.258Z,19.67
2023-01-12T06:14:59.767Z,14.63
2023-01-12T06:17:27.384Z,16.23
2023-01-12T06:19:54.836Z,13.90
2023-01-12T06:22:22.255Z,13.73
2023-01-12T06:24:49.691Z,18.58
2023-01-12T06:27:17.361Z,16.08
2023-01-12T06:29:44.812Z,12.98
2023-01-12T06:32:12.176Z,18.20
2023-01-12T06:34:39.662Z,18.05
2023-01-12T06:37:08.302Z,18.05
2023-01-12T06:39:36.843Z,16.48
2023-01-12T06:42:24.523Z,16.80
2023-01-12T06:44:52.005Z,14.02
2023-01-12T06:47:19.408Z,16.85
2023-01-12T06:49:46.938Z,16.38
2023-01-12T06:52:14.457Z,24.63
2023-01-12T06:54:41.982Z,16.98
2023-01-12T06:57:09.439Z,18.27
2023-01-12T06:59:38.915Z,27.23
2023-01-12T07:02:06.768Z,30.77
2023-01-12T07:04:34.167Z,25.55
2023-01-12T07:07:01.625Z,23.73
2023-01-12T07:09:28.969Z,19.77
2023-01-12T07:11:56.491Z,18.92
2023-01-12T07:14:23.893Z,19.75
2023-01-12T07:16:51.391Z,19.02
2023-01-12T07:19:18.900Z,14.02
2023-01-12T07:21:46.390Z,11.95
2023-01-12T07:24:13.881Z,10.98
2023-01-12T07:26:41.453Z,12.23
2023-01-12T07:29:11.288Z,12.15
2023-01-12T07:31:38.947Z,10.30
2023-01-12T07:34:06.397Z,18.30
2023-01-12T07:36:33.984Z,20.50
2023-01-12T07:39:01.350Z,22.50
2023-01-12T07:41:47.456Z,21.65
2023-01-12T07:44:14.905Z,25.48
2023-01-12T07:46:42.410Z,31.15
2023-01-12T07:49:10.003Z,31.73
2023-01-12T07:51:37.384Z,30.92
2023-01-12T07:54:04.808Z,25.50
2023-01-12T07:56:32.188Z,25.33
2023-01-12T07:58:59.635Z,26.50
2023-01-12T08:01:27.143Z,24.35
2023-01-12T08:03:54.761Z,25.73
2023-01-12T08:06:22.200Z,32.50
2023-01-12T08:08:49.778Z,36.15
2023-01-12T08:11:17.198Z,31.15
2023-01-12T08:13:44.736Z,31.02
2023-01-12T08:16:32.443Z,27.85
2023-01-12T08:19:20.136Z,26.42
2023-01-12T08:21:52.973Z,24.50
2023-01-12T08:24:22.979Z,26.67
2023-01-12T08:26:52.393Z,30.33
2023-01-12T08:29:32.828Z,27.65
2023-01-12T08:32:04.455Z,26.20
2023-01-12T08:34:32.509Z,20.98
2023-01-12T08:37:01.499Z,26.30
2023-01-12T08:39:29.629Z,23.13
2023-01-12T08:41:57.842Z,26.08
2023-01-12T08:44:28.777Z,21.60
2023-01-12T08:46:56.322Z,22.38
2023-01-12T08:49:25.119Z,24.15
2023-01-12T08:51:52.621Z,29.02
2023-01-12T08:54:21.187Z,29.73
2023-01-12T08:56:49.432Z,27.65
2023-01-12T08:59:19.156Z,30.75
2023-01-12T09:01:46.811Z,31.02
2023-01-12T09:04:14.504Z,30.63
2023-01-12T09:06:43.010Z,27.33
2023-01-12T09:09:11.704Z,29.80
2023-01-12T09:11:39.756Z,20.33
2023-01-12T09:14:07.325Z,25.63
2023-01-12T09:16:34.857Z,18.98
2023-01-12T09:19:02.476Z,21.58
2023-01-12T09:21:30.490Z,17.40
2023-01-12T09:23:58.046Z,20.98
2023-01-12T09:26:31.898Z,19.95
2023-01-12T09:29:04.111Z,17.70
2023-01-12T09:31:33.126Z,17.23
2023-01-12T09:34:00.622Z,15.65
2023-01-12T09:36:29.273Z,17.08
2023-01-12T09:38:57.273Z,12.43
2023-01-12T09:41:51.257Z,17.40
2023-01-12T09:44:56.323Z,16.23
2023-01-12T09:47:41.127Z,12.45
2023-01-12T09:50:13.525Z,14.17
2023-01-12T09:52:46.331Z,15.43
2023-01-12T09:55:24.226Z,14.35
2023-01-12T09:58:10.270Z,13.40
2023-01-12T10:00:37.729Z,16.17
2023-01-12T10:03:11.285Z,15.18
2023-01-12T10:05:39.919Z,11.75
2023-01-12T10:08:14.516Z,14.48
2023-01-12T10:10:44.368Z,16.27
2023-01-12T10:13:14.531Z,14.45
2023-01-12T10:15:55.401Z,15.00
2023-01-12T10:18:31.711Z,12.60
2023-01-12T10:23:28.368Z,19.13
2023-01-12T10:26:05.995Z,20.13
2023-01-12T10:28:35.412Z,17.42
2023-01-12T10:31:03.172Z,16.17
2023-01-12T10:33:32.842Z,17.08
2023-01-12T10:36:19.964Z,15.10
2023-01-12T10:38:59.548Z,29.13
2023-01-12T10:41:37.934Z,171.82
2023-01-12T10:44:07.669Z,171.80
2023-01-12T10:46:36.075Z,42.33
2023-01-12T10:49:20.250Z,26.38
2023-01-12T10:51:53.916Z,22.95
2023-01-12T10:54:41.490Z,20.55
2023-01-12T10:57:15.060Z,16.45
2023-01-12T10:59:42.616Z,15.50
2023-01-12T11:02:11.777Z,17.10
2023-01-12T11:04:43.804Z,16.33
2023-01-12T11:07:29.899Z,15.38
2023-01-12T11:09:58.456Z,15.57
2023-01-12T11:12:34.403Z,17.05
2023-01-12T11:15:10.989Z,14.25
2023-01-12T11:17:49.737Z,16.70
2023-01-12T11:20:24.126Z,16.58
2023-01-12T11:22:54.609Z,12.75
2023-01-12T11:25:23.997Z,13.75
2023-01-12T11:28:06.920Z,15.68
2023-01-12T11:30:40.599Z,15.07
2023-01-12T11:33:13.408Z,14.82
2023-01-12T11:35:42.501Z,18.40
2023-01-12T11:38:14.399Z,18.63
2023-01-12T11:40:42.605Z,20.58
2023-01-12T11:43:39.987Z,18.10
2023-01-12T11:46:13.536Z,19.10
2023-01-12T11:48:48.614Z,18.52
2023-01-12T11:51:16.213Z,19.95
2023-01-12T11:53:43.949Z,18.15
2023-01-12T11:56:29.343Z,18.95
2023-01-12T11:59:12.088Z,17.08
2023-01-12T12:02:05.977Z,17.48
2023-01-12T12:04:52.334Z,16.85
2023-01-12T12:07:28.241Z,17.45
2023-01-12T12:10:05.886Z,14.10
2023-01-12T12:12:36.181Z,17.90
2023-01-12T12:15:03.609Z,21.40
2023-01-12T12:17:42.516Z,20.42
2023-01-12T12:20:17.624Z,20.48
2023-01-12T12:22:57.538Z,18.55
2023-01-12T12:25:25.015Z,19.70
2023-01-12T12:27:59.450Z,13.35
2023-01-12T12:30:26.927Z,13.30
2023-01-12T12:32:58.212Z,14.20
2023-01-12T12:35:44.510Z,15.75
2023-01-12T12:38:27.026Z,15.23
2023-01-12T12:41:32.040Z,14.75
2023-01-12T12:44:37.417Z,17.88
2023-01-12T12:47:23.624Z,19.73
2023-01-12T12:49:52.355Z,15.13
2023-01-12T12:52:20.271Z,14.98
2023-01-12T12:54:47.787Z,14.13
2023-01-12T12:57:15.684Z,12.68
2023-01-12T12:59:43.107Z,11.32
2023-01-12T13:02:30.806Z,12.25
2023-01-12T13:04:58.820Z,13.55
2023-01-12T13:07:26.880Z,15.30
2023-01-12T13:10:03.403Z,13.52
2023-01-12T13:12:32.148Z,12.65
2023-01-12T13:15:11.629Z,16.67
2023-01-12T13:17:43.052Z,22.55
2023-01-12T13:20:24.141Z,21.30
2023-01-12T13:22:52.997Z,25.17
2023-01-12T13:25:20.628Z,27.42
2023-01-12T13:27:55.631Z,25.95
2023-01-12T13:30:29.686Z,27.33
2023-01-12T13:32:58.578Z,23.98
2023-01-12T13:35:28.698Z,26.13
2023-01-12T13:38:02.239Z,27.25
2023-01-12T13:40:33.092Z,25.73
2023-01-12T13:43:19.784Z,27.95
2023-01-12T13:45:50.716Z,35.65
2023-01-12T13:48:19.808Z,33.03
2023-01-12T13:50:52.489Z,36.30
2023-01-12T13:53:25.696Z,30.33
2023-01-12T13:56:04.619Z,30.05
2023-01-12T13:58:42.584Z,29.83
2023-01-12T14:01:26.286Z,27.08
2023-01-12T14:04:01.283Z,29.02
2023-01-12T14:06:38.497Z,24.50
2023-01-12T14:09:14.830Z,26.48
2023-01-12T14:11:48.485Z,28.88
2023-01-12T14:14:53.778Z,26.63
2023-01-12T14:17:46.013Z,26.52
2023-01-12T14:20:18.185Z,24.27
2023-01-12T14:22:46.172Z,23.42
2023-01-12T14:25:21.669Z,23.88
2023-01-12T14:27:57.093Z,26.42
2023-01-12T14:30:25.895Z,27.60
2023-01-12T14:32:53.768Z,23.70
2023-01-12T14:35:22.238Z,28.55
2023-01-12T14:37:51.295Z,24.42
2023-01-12T14:40:30.984Z,25.35
2023-01-12T14:43:17.631Z,28.48
2023-01-12T14:46:13.661Z,25.67
2023-01-12T14:48:44.113Z,24.63
2023-01-12T14:51:11.510Z,24.33
2023-01-12T14:53:40.249Z,24.10
2023-01-12T14:56:14.678Z,25.65
2023-01-12T14:58:42.244Z,25.37
2023-01-12T15:01:11.185Z,23.13
2023-01-12T15:03:43.828Z,24.77
2023-01-12T15:06:15.230Z,26.35
2023-01-12T15:08:53.029Z,24.48
2023-01-12T15:11:29.510Z,26.35
2023-01-12T15:13:58.204Z,23.10
2023-01-12T15:16:44.176Z,25.58
2023-01-12T15:19:30.565Z,26.15
2023-01-12T15:22:17.538Z,25.52
2023-01-12T15:25:03.876Z,24.40
2023-01-12T15:27:32.090Z,23.70
2023-01-12T15:29:59.421Z,21.05
2023-01-12T15:32:41.443Z,20.13
2023-01-12T15:35:16.197Z,19.73
2023-01-12T15:37:43.794Z,19.95
2023-01-12T15:40:13.550Z,17.27
2023-01-12T15:42:41.071Z,20.77
2023-01-12T15:45:29.102Z,20.70
2023-01-12T15:47:56.710Z,21.70
2023-01-12T15:50:24.392Z,22.92
2023-01-12T15:52:52.009Z,24.85
2023-01-12T15:55:21.071Z,47.30
2023-01-12T15:57:48.667Z,45.95
2023-01-12T16:00:18.746Z,27.55
2023-01-12T16:02:48.667Z,27.73
2023-01-12T16:05:17.966Z,22.45
2023-01-12T16:07:48.151Z,19.88
2023-01-12T16:10:16.513Z,19.17
2023-01-12T16:12:44.519Z,21.27
2023-01-12T16:15:17.216Z,16.60
2023-01-12T16:17:46.030Z,18.60
2023-01-12T16:20:16.065Z,15.30
2023-01-12T16:22:43.625Z,14.95
2023-01-12T16:25:11.404Z,14.63
2023-01-12T16:27:39.390Z,18.27
2023-01-12T16:30:07.679Z,18.98
2023-01-12T16:32:35.173Z,17.92
2023-01-12T16:35:02.717Z,17.60
2023-01-12T16:37:33.379Z,15.82
2023-01-12T16:40:01.294Z,14.80
2023-01-12T16:42:29.648Z,16.80
2023-01-12T16:44:57.178Z,18.00
2023-01-12T16:47:24.715Z,15.35
2023-01-12T16:49:52.580Z,13.93
2023-01-12T16:52:21.134Z,15.43
2023-01-12T16:54:48.496Z,15.85
2023-01-12T16:57:17.153Z,17.60
2023-01-12T16:59:44.729Z,16.08
2023-01-12T17:02:14.640Z,16.55
2023-01-12T17:04:43.705Z,16.63
2023-01-12T17:07:11.508Z,15.90
2023-01-12T17:09:39.616Z,16.25
2023-01-12T17:12:07.604Z,21.13
2023-01-12T17:14:35.464Z,21.17
2023-01-12T17:17:05.376Z,21.80
2023-01-12T17:19:34.063Z,21.05
2023-01-12T17:22:02.648Z,19.95
2023-01-12T17:24:30.803Z,16.63
2023-01-12T17:26:59.522Z,14.48
2023-01-12T17:29:27.569Z,13.27
2023-01-12T17:32:03.389Z,13.25
2023-01-12T17:34:32.329Z,18.30
2023-01-12T17:37:02.946Z,13.73
2023-01-12T17:39:31.247Z,12.57
2023-01-12T17:42:18.352Z,14.18
2023-01-12T17:44:45.854Z,15.00
2023-01-12T17:47:14.340Z,15.90
2023-01-12T17:49:42.686Z,14.50
2023-01-12T17:52:10.099Z,16.95
2023-01-12T17:54:38.589Z,20.10
2023-01-12T17:57:07.076Z,15.10
2023-01-12T17:59:35.590Z,17.48
2023-01-12T18:02:03.109Z,21.60
2023-01-12T18:04:31.459Z,19.15
2023-01-12T18:06:58.925Z,18.20
2023-01-12T18:09:28.029Z,17.70
2023-01-12T18:11:55.618Z,20.85
2023-01-12T18:14:25.003Z,19.48
2023-01-12T18:16:52.680Z,22.20
2023-01-12T18:19:20.054Z,21.70
2023-01-12T18:21:47.548Z,18.33
2023-01-12T18:24:14.929Z,20.83
2023-01-12T18:26:42.459Z,20.75
2023-01-12T18:29:09.843Z,20.80
2023-01-12T18:31:37.691Z,21.83
2023-01-12T18:34:06.311Z,21.35
2023-01-12T18:36:35.207Z,25.45
2023-01-12T18:39:03.103Z,22.88
2023-01-12T18:41:49.480Z,28.58
2023-01-12T18:44:17.254Z,18.75
2023-01-12T18:47:03.456Z,18.17
2023-01-12T18:49:34.767Z,17.90
2023-01-12T18:52:21.660Z,19.92
2023-01-12T18:54:51.703Z,19.88
2023-01-12T18:57:21.509Z,20.08
2023-01-12T18:59:51.662Z,21.05
2023-01-12T19:02:19.994Z,23.13
2023-01-12T19:04:50.807Z,23.58
2023-01-12T19:07:31.754Z,23.35
2023-01-12T19:10:00.348Z,22.50
2023-01-12T19:12:30.694Z,25.27
2023-01-12T19:15:21.223Z,25.95
2023-01-12T19:17:48.676Z,25.88
2023-01-12T19:20:17.320Z,26.73
2023-01-12T19:23:03.409Z,25.23
2023-01-12T19:25:49.507Z,24.77
2023-01-12T19:28:35.590Z,28.27
2023-01-12T19:31:05.089Z,27.25
2023-01-12T19:33:32.973Z,26.85
2023-01-12T19:36:05.317Z,26.92
2023-01-12T19:38:39.493Z,25.70
2023-01-12T19:41:13.472Z,25.63
2023-01-12T19:43:45.931Z,27.58
2023-01-12T19:46:13.709Z,28.45
2023-01-12T19:48:41.287Z,28.15
2023-01-12T19:51:13.501Z,30.60
2023-01-12T19:53:41.973Z,26.80
2023-01-12T19:56:14.569Z,28.95
2023-01-12T19:58:42.479Z,30.30
2023-01-12T20:01:20.836Z,28.33
2023-01-12T20:03:48.640Z,28.35
2023-01-12T20:06:16.116Z,27.73
2023-01-12T20:08:44.116Z,28.17
2023-01-12T20:11:11.698Z,27.92
2023-01-12T20:13:39.598Z,75.93
2023-01-12T20:16:08.187Z,60.75
2023-01-12T20:18:35.659Z,28.15
2023-01-12T20:21:07.562Z,25.77
2023-01-12T20:23:35.156Z,24.80
2023-01-12T20:26:02.669Z,26.92
2023-01-12T20:28:30.273Z,24.58
2023-01-12T20:30:59.368Z,26.45
2023-01-12T20:33:28.474Z,27.73
2023-01-12T20:35:56.029Z,25.40
2023-01-12T20:38:23.582Z,25.63
2023-01-12T20:40:50.959Z,24.08
2023-01-12T20:43:18.376Z,24.10
2023-01-12T20:45:45.998Z,25.85
2023-01-12T20:48:14.209Z,27.38
2023-01-12T20:50:48.454Z,24.67
2023-01-12T20:53:17.146Z,23.65
2023-01-12T20:55:50.077Z,25.65
2023-01-12T20:58:17.554Z,23.75
2023-01-12T21:00:45.109Z,24.83
2023-01-12T21:03:12.595Z,22.33
2023-01-12T21:05:43.951Z,25.42
2023-01-12T21:08:11.476Z,22.73
2023-01-12T21:10:39.669Z,23.23
2023-01-12T21:13:07.667Z,21.40
2023-01-12T21:15:35.444Z,22.58
2023-01-12T21:18:02.804Z,25.55
2023-01-12T21:20:30.725Z,23.13
2023-01-12T21:22:58.161Z,23.52
2023-01-12T21:25:27.928Z,24.92
2023-01-12T21:27:56.073Z,22.70
2023-01-12T21:30:23.625Z,20.45
2023-01-12T21:32:53.506Z,22.30
2023-01-12T21:35:21.012Z,22.23
2023-01-12T21:37:48.434Z,21.58
2023-01-12T21:40:16.675Z,22.95
2023-01-12T21:43:02.707Z,23.58
2023-01-12T21:45:30.253Z,22.33
2023-01-12T21:47:57.602Z,24.25
2023-01-12T21:50:25.070Z,22.80
2023-01-12T21:52:52.427Z,22.88
2023-01-12T21:55:20.054Z,22.10
2023-01-12T21:57:47.863Z,24.45
2023-01-12T22:00:15.793Z,23.92
2023-01-12T22:02:44.370Z,23.30
2023-01-12T22:05:13.713Z,23.45
2023-01-12T22:07:41.523Z,23.00
2023-01-12T22:10:22.243Z,24.48
2023-01-12T22:12:51.124Z,24.85
2023-01-12T22:15:19.161Z,24.75
2023-01-12T22:17:47.468Z,21.60
2023-01-12T22:20:16.573Z,24.10
2023-01-12T22:22:44.522Z,20.55
2023-01-12T22:25:13.535Z,20.83
2023-01-12T22:27:44.039Z,20.30
2023-01-12T22:30:12.983Z,21.65
2023-01-12T22:32:41.395Z,22.33
2023-01-12T22:35:09.183Z,19.40
2023-01-12T22:37:37.432Z,23.55
2023-01-12T22:40:05.809Z,19.63
2023-01-12T22:42:51.845Z,21.60
2023-01-12T22:45:19.348Z,20.83
2023-01-12T22:47:51.065Z,19.88
2023-01-12T22:50:18.501Z,20.67
2023-01-12T22:52:45.840Z,20.67
2023-01-12T22:55:13.265Z,19.27
2023-01-12T22:57:42.010Z,18.25
2023-01-12T23:00:18.869Z,20.15
2023-01-12T23:03:02.671Z,20.85
2023-01-12T23:05:35.905Z,18.08
2023-01-12T23:08:04.949Z,20.38
2023-01-12T23:10:32.344Z,18.02
2023-01-12T23:13:11.831Z,18.05
2023-01-12T23:15:39.813Z,15.10
2023-01-12T23:18:07.537Z,16.83
2023-01-12T23:20:36.228Z,15.68
2023-01-12T23:23:04.231Z,15.80
2023-01-12T23:25:35.209Z,15.85
2023-01-12T23:28:03.038Z,16.40
2023-01-12T23:30:30.784Z,14.55
2023-01-12T23:33:03.952Z,15.13
2023-01-12T23:35:35.758Z,16.60
2023-01-12T23:38:03.239Z,14.30
2023-01-12T23:40:30.655Z,16.80
2023-01-12T23:42:58.939Z,14.45
2023-01-12T23:45:26.329Z,13.05
2023-01-12T23:47:53.732Z,15.05
2023-01-12T23:50:21.318Z,17.23
2023-01-12T23:52:50.162Z,14.68
2023-01-12T23:55:18.073Z,14.85
2023-01-12T23:57:48.495Z,13.60
